sensor_id;sensor_type;location;lat;lon;timestamp;P1;durP1;ratioP1;P2;durP2;ratioP2
5869;SDS011;2961;47.702;9.410;2023-12-14T00:00:04;1.70;;;1.60;;
5869;SDS011;2961;47.702;9.410;2023-12-14T00:02:34;1.73;;;1.70;;
5869;SDS011;2961;47.702;9.410;2023-12-14T00:05:01;2.00;;;1.67;;
5869;SDS011;2961;47.702;9.410;2023-12-14T00:07:28;1.87;;;1.77;;
5869;SDS011;2961;47.702;9.410;2023-12-14T00:09:55;1.50;;;1.50;;
5869;SDS011;2961;47.702;9.410;2023-12-14T00:12:22;1.40;;;1.30;;
5869;SDS011;2961;47.702;9.410;2023-12-14T00:14:48;6.43;;;1.40;;
5869;SDS011;2961;47.702;9.410;2023-12-14T00:17:15;1.87;;;1.87;;
5869;SDS011;2961;47.702;9.410;2023-12-14T00:19:43;1.53;;;1.50;;
5869;SDS011;2961;47.702;9.410;2023-12-14T00:22:10;1.73;;;1.70;;
5869;SDS011;2961;47.702;9.410;2023-12-14T00:24:37;2.90;;;1.30;;
5869;SDS011;2961;47.702;9.410;2023-12-14T00:27:04;1.63;;;1.53;;
5869;SDS011;2961;47.702;9.410;2023-12-14T00:29:31;2.10;;;1.73;;
5869;SDS011;2961;47.702;9.410;2023-12-14T00:31:57;1.87;;;1.77;;
5869;SDS011;2961;47.702;9.410;2023-12-14T00:34:24;2.27;;;1.93;;
5869;SDS011;2961;47.702;9.410;2023-12-14T00:36:52;3.27;;;2.13;;
5869;SDS011;2961;47.702;9.410;2023-12-14T00:39:19;3.10;;;2.40;;
5869;SDS011;2961;47.702;9.410;2023-12-14T00:41:46;4.53;;;2.40;;
5869;SDS011;2961;47.702;9.410;2023-12-14T00:44:12;4.07;;;2.20;;
5869;SDS011;2961;47.702;9.410;2023-12-14T00:46:39;2.70;;;2.60;;
5869;SDS011;2961;47.702;9.410;2023-12-14T00:49:06;2.67;;;2.40;;
5869;SDS011;2961;47.702;9.410;2023-12-14T00:51:33;4.87;;;2.30;;
5869;SDS011;2961;47.702;9.410;2023-12-14T00:54:01;5.07;;;2.87;;
5869;SDS011;2961;47.702;9.410;2023-12-14T00:56:28;3.17;;;2.80;;
5869;SDS011;2961;47.702;9.410;2023-12-14T00:58:55;3.23;;;2.90;;
5869;SDS011;2961;47.702;9.410;2023-12-14T01:01:22;3.00;;;2.80;;
5869;SDS011;2961;47.702;9.410;2023-12-14T01:03:49;4.00;;;3.70;;
5869;SDS011;2961;47.702;9.410;2023-12-14T01:06:15;2.57;;;2.47;;
5869;SDS011;2961;47.702;9.410;2023-12-14T01:08:42;2.90;;;2.47;;
5869;SDS011;2961;47.702;9.410;2023-12-14T01:11:10;2.70;;;2.50;;
5869;SDS011;2961;47.702;9.410;2023-12-14T01:13:37;2.50;;;2.30;;
5869;SDS011;2961;47.702;9.410;2023-12-14T01:16:04;2.20;;;2.20;;
5869;SDS011;2961;47.702;9.410;2023-12-14T01:18:31;2.17;;;2.07;;
5869;SDS011;2961;47.702;9.410;2023-12-14T01:20:58;1.93;;;1.80;;
5869;SDS011;2961;47.702;9.410;2023-12-14T01:23:25;3.77;;;2.27;;
5869;SDS011;2961;47.702;9.410;2023-12-14T01:25:51;5.13;;;2.67;;
5869;SDS011;2961;47.702;9.410;2023-12-14T01:28:20;2.20;;;2.10;;
5869;SDS011;2961;47.702;9.410;2023-12-14T01:30:46;2.70;;;2.47;;
5869;SDS011;2961;47.702;9.410;2023-12-14T01:33:13;2.37;;;2.27;;
5869;SDS011;2961;47.702;9.410;2023-12-14T01:35:40;2.93;;;2.63;;
5869;SDS011;2961;47.702;9.410;2023-12-14T01:38:07;2.00;;;1.90;;
5869;SDS011;2961;47.702;9.410;2023-12-14T01:40:33;2.77;;;2.57;;
5869;SDS011;2961;47.702;9.410;2023-12-14T01:43:07;2.90;;;2.70;;
5869;SDS011;2961;47.702;9.410;2023-12-14T01:45:36;2.90;;;2.70;;
5869;SDS011;2961;47.702;9.410;2023-12-14T01:48:03;2.30;;;2.10;;
5869;SDS011;2961;47.702;9.410;2023-12-14T01:50:30;1.90;;;1.80;;
5869;SDS011;2961;47.702;9.410;2023-12-14T01:52:57;2.50;;;2.30;;
5869;SDS011;2961;47.702;9.410;2023-12-14T01:55:24;3.93;;;1.90;;
5869;SDS011;2961;47.702;9.410;2023-12-14T01:57:51;1.30;;;1.30;;
5869;SDS011;2961;47.702;9.410;2023-12-14T02:00:23;2.00;;;1.40;;
5869;SDS011;2961;47.702;9.410;2023-12-14T02:02:57;1.63;;;1.53;;
5869;SDS011;2961;47.702;9.410;2023-12-14T02:05:24;2.50;;;2.10;;
5869;SDS011;2961;47.702;9.410;2023-12-14T02:07:51;2.00;;;1.43;;
5869;SDS011;2961;47.702;9.410;2023-12-14T02:10:18;0.93;;;0.93;;
5869;SDS011;2961;47.702;9.410;2023-12-14T02:12:44;1.00;;;1.00;;
5869;SDS011;2961;47.702;9.410;2023-12-14T02:15:11;1.40;;;1.30;;
5869;SDS011;2961;47.702;9.410;2023-12-14T02:17:38;1.30;;;1.20;;
5869;SDS011;2961;47.702;9.410;2023-12-14T02:20:07;1.20;;;1.10;;
5869;SDS011;2961;47.702;9.410;2023-12-14T02:22:47;0.90;;;0.90;;
5869;SDS011;2961;47.702;9.410;2023-12-14T02:25:15;1.33;;;1.30;;
5869;SDS011;2961;47.702;9.410;2023-12-14T02:27:42;1.80;;;0.77;;
5869;SDS011;2961;47.702;9.410;2023-12-14T02:30:09;1.00;;;1.00;;
5869;SDS011;2961;47.702;9.410;2023-12-14T02:32:36;1.17;;;1.00;;
5869;SDS011;2961;47.702;9.410;2023-12-14T02:35:04;0.90;;;0.90;;
5869;SDS011;2961;47.702;9.410;2023-12-14T02:37:31;0.90;;;0.90;;
5869;SDS011;2961;47.702;9.410;2023-12-14T02:39:59;2.93;;;1.83;;
5869;SDS011;2961;47.702;9.410;2023-12-14T02:42:26;4.83;;;2.67;;
5869;SDS011;2961;47.702;9.410;2023-12-14T02:44:53;2.90;;;2.17;;
5869;SDS011;2961;47.702;9.410;2023-12-14T02:47:20;2.30;;;2.13;;
5869;SDS011;2961;47.702;9.410;2023-12-14T02:49:47;3.03;;;2.77;;
5869;SDS011;2961;47.702;9.410;2023-12-14T02:52:13;3.53;;;2.53;;
5869;SDS011;2961;47.702;9.410;2023-12-14T02:54:40;2.67;;;2.57;;
5869;SDS011;2961;47.702;9.410;2023-12-14T02:57:08;3.97;;;2.30;;
5869;SDS011;2961;47.702;9.410;2023-12-14T02:59:35;1.63;;;1.63;;
5869;SDS011;2961;47.702;9.410;2023-12-14T03:02:02;1.50;;;1.50;;
5869;SDS011;2961;47.702;9.410;2023-12-14T03:04:29;1.90;;;1.80;;
5869;SDS011;2961;47.702;9.410;2023-12-14T03:06:56;2.10;;;2.00;;
5869;SDS011;2961;47.702;9.410;2023-12-14T03:09:27;2.10;;;2.00;;
5869;SDS011;2961;47.702;9.410;2023-12-14T03:11:54;2.20;;;2.10;;
5869;SDS011;2961;47.702;9.410;2023-12-14T03:14:22;2.93;;;1.70;;
5869;SDS011;2961;47.702;9.410;2023-12-14T03:16:49;1.50;;;1.50;;
5869;SDS011;2961;47.702;9.410;2023-12-14T03:19:15;3.17;;;2.30;;
5869;SDS011;2961;47.702;9.410;2023-12-14T03:21:42;2.83;;;2.20;;
5869;SDS011;2961;47.702;9.410;2023-12-14T03:24:09;1.90;;;1.80;;
5869;SDS011;2961;47.702;9.410;2023-12-14T03:26:36;1.80;;;1.70;;
5869;SDS011;2961;47.702;9.410;2023-12-14T03:29:03;3.93;;;2.37;;
5869;SDS011;2961;47.702;9.410;2023-12-14T03:31:31;1.70;;;1.70;;
5869;SDS011;2961;47.702;9.410;2023-12-14T03:33:57;1.73;;;1.63;;
5869;SDS011;2961;47.702;9.410;2023-12-14T03:36:24;1.77;;;1.67;;
5869;SDS011;2961;47.702;9.410;2023-12-14T03:38:52;1.90;;;1.90;;
5869;SDS011;2961;47.702;9.410;2023-12-14T03:41:19;3.00;;;1.90;;
5869;SDS011;2961;47.702;9.410;2023-12-14T03:43:46;2.00;;;1.83;;
5869;SDS011;2961;47.702;9.410;2023-12-14T03:46:13;2.50;;;2.30;;
5869;SDS011;2961;47.702;9.410;2023-12-14T03:48:41;2.50;;;2.40;;
5869;SDS011;2961;47.702;9.410;2023-12-14T03:51:07;3.50;;;1.80;;
5869;SDS011;2961;47.702;9.410;2023-12-14T03:53:34;3.43;;;2.57;;
5869;SDS011;2961;47.702;9.410;2023-12-14T03:56:01;2.97;;;2.27;;
5869;SDS011;2961;47.702;9.410;2023-12-14T03:58:29;2.43;;;2.33;;
5869;SDS011;2961;47.702;9.410;2023-12-14T04:00:56;2.30;;;2.20;;
5869;SDS011;2961;47.702;9.410;2023-12-14T04:03:23;7.40;;;2.60;;
5869;SDS011;2961;47.702;9.410;2023-12-14T04:05:51;2.23;;;2.13;;
5869;SDS011;2961;47.702;9.410;2023-12-14T04:08:18;2.10;;;2.00;;
5869;SDS011;2961;47.702;9.410;2023-12-14T04:10:45;2.03;;;1.93;;
5869;SDS011;2961;47.702;9.410;2023-12-14T04:13:11;1.70;;;1.60;;
5869;SDS011;2961;47.702;9.410;2023-12-14T04:15:38;2.00;;;1.90;;
5869;SDS011;2961;47.702;9.410;2023-12-14T04:18:06;2.27;;;2.07;;
5869;SDS011;2961;47.702;9.410;2023-12-14T04:20:33;2.03;;;1.93;;
5869;SDS011;2961;47.702;9.410;2023-12-14T04:23:01;1.87;;;1.77;;
5869;SDS011;2961;47.702;9.410;2023-12-14T04:25:28;1.67;;;1.57;;
5869;SDS011;2961;47.702;9.410;2023-12-14T04:27:54;2.27;;;1.97;;
5869;SDS011;2961;47.702;9.410;2023-12-14T04:30:21;2.00;;;2.00;;
5869;SDS011;2961;47.702;9.410;2023-12-14T04:32:48;1.77;;;1.67;;
5869;SDS011;2961;47.702;9.410;2023-12-14T04:35:15;1.93;;;1.90;;
5869;SDS011;2961;47.702;9.410;2023-12-14T04:37:42;2.57;;;2.47;;
5869;SDS011;2961;47.702;9.410;2023-12-14T04:40:11;1.67;;;1.67;;
5869;SDS011;2961;47.702;9.410;2023-12-14T04:42:38;1.53;;;1.53;;
5869;SDS011;2961;47.702;9.410;2023-12-14T04:45:05;2.30;;;2.00;;
5869;SDS011;2961;47.702;9.410;2023-12-14T04:47:34;2.27;;;2.17;;
5869;SDS011;2961;47.702;9.410;2023-12-14T04:50:00;2.17;;;2.10;;
5869;SDS011;2961;47.702;9.410;2023-12-14T04:52:27;3.80;;;1.90;;
5869;SDS011;2961;47.702;9.410;2023-12-14T04:54:54;2.10;;;2.00;;
5869;SDS011;2961;47.702;9.410;2023-12-14T04:57:22;1.60;;;1.60;;
5869;SDS011;2961;47.702;9.410;2023-12-14T04:59:49;1.90;;;1.80;;
5869;SDS011;2961;47.702;9.410;2023-12-14T05:02:16;1.70;;;1.60;;
5869;SDS011;2961;47.702;9.410;2023-12-14T05:04:42;2.10;;;2.00;;
5869;SDS011;2961;47.702;9.410;2023-12-14T05:07:09;2.43;;;2.23;;
5869;SDS011;2961;47.702;9.410;2023-12-14T05:09:36;2.00;;;1.90;;
5869;SDS011;2961;47.702;9.410;2023-12-14T05:12:03;3.90;;;2.10;;
5869;SDS011;2961;47.702;9.410;2023-12-14T05:14:31;2.80;;;2.60;;
5869;SDS011;2961;47.702;9.410;2023-12-14T05:16:58;3.17;;;2.10;;
5869;SDS011;2961;47.702;9.410;2023-12-14T05:19:25;5.13;;;2.60;;
5869;SDS011;2961;47.702;9.410;2023-12-14T05:21:52;3.80;;;3.27;;
5869;SDS011;2961;47.702;9.410;2023-12-14T05:24:19;4.67;;;2.63;;
5869;SDS011;2961;47.702;9.410;2023-12-14T05:26:46;4.23;;;3.40;;
5869;SDS011;2961;47.702;9.410;2023-12-14T05:29:13;3.47;;;2.80;;
5869;SDS011;2961;47.702;9.410;2023-12-14T05:31:43;3.60;;;3.37;;
5869;SDS011;2961;47.702;9.410;2023-12-14T05:34:10;3.60;;;3.13;;
5869;SDS011;2961;47.702;9.410;2023-12-14T05:36:37;3.30;;;3.00;;
5869;SDS011;2961;47.702;9.410;2023-12-14T05:39:03;3.87;;;2.83;;
5869;SDS011;2961;47.702;9.410;2023-12-14T05:41:30;3.47;;;3.17;;
5869;SDS011;2961;47.702;9.410;2023-12-14T05:43:57;2.33;;;2.23;;
5869;SDS011;2961;47.702;9.410;2023-12-14T05:46:24;3.10;;;2.83;;
5869;SDS011;2961;47.702;9.410;2023-12-14T05:48:52;2.70;;;2.50;;
5869;SDS011;2961;47.702;9.410;2023-12-14T05:51:28;2.60;;;2.40;;
5869;SDS011;2961;47.702;9.410;2023-12-14T05:53:56;3.20;;;2.90;;
5869;SDS011;2961;47.702;9.410;2023-12-14T05:56:23;3.70;;;3.43;;
5869;SDS011;2961;47.702;9.410;2023-12-14T05:58:50;3.63;;;3.23;;
5869;SDS011;2961;47.702;9.410;2023-12-14T06:01:19;2.50;;;2.40;;
5869;SDS011;2961;47.702;9.410;2023-12-14T06:03:45;3.30;;;3.10;;
5869;SDS011;2961;47.702;9.410;2023-12-14T06:06:14;4.03;;;3.13;;
5869;SDS011;2961;47.702;9.410;2023-12-14T06:08:40;2.80;;;2.70;;
5869;SDS011;2961;47.702;9.410;2023-12-14T06:11:07;3.00;;;2.80;;
5869;SDS011;2961;47.702;9.410;2023-12-14T06:13:34;3.70;;;2.97;;
5869;SDS011;2961;47.702;9.410;2023-12-14T06:16:01;4.10;;;3.70;;
5869;SDS011;2961;47.702;9.410;2023-12-14T06:18:29;3.27;;;3.07;;
5869;SDS011;2961;47.702;9.410;2023-12-14T06:20:56;5.57;;;3.53;;
5869;SDS011;2961;47.702;9.410;2023-12-14T06:23:24;4.20;;;3.60;;
5869;SDS011;2961;47.702;9.410;2023-12-14T06:25:52;3.70;;;3.40;;
5869;SDS011;2961;47.702;9.410;2023-12-14T06:28:18;3.53;;;3.23;;
5869;SDS011;2961;47.702;9.410;2023-12-14T06:30:46;6.03;;;3.70;;
5869;SDS011;2961;47.702;9.410;2023-12-14T06:33:13;3.70;;;3.40;;
5869;SDS011;2961;47.702;9.410;2023-12-14T06:35:40;3.90;;;3.60;;
5869;SDS011;2961;47.702;9.410;2023-12-14T06:38:06;4.00;;;3.33;;
5869;SDS011;2961;47.702;9.410;2023-12-14T06:40:34;3.40;;;3.20;;
5869;SDS011;2961;47.702;9.410;2023-12-14T06:43:03;3.50;;;3.30;;
5869;SDS011;2961;47.702;9.410;2023-12-14T06:45:30;4.27;;;3.30;;
5869;SDS011;2961;47.702;9.410;2023-12-14T06:47:57;3.73;;;2.70;;
5869;SDS011;2961;47.702;9.410;2023-12-14T06:50:23;3.67;;;3.47;;
5869;SDS011;2961;47.702;9.410;2023-12-14T06:52:50;2.87;;;2.67;;
5869;SDS011;2961;47.702;9.410;2023-12-14T06:55:17;4.70;;;2.93;;
5869;SDS011;2961;47.702;9.410;2023-12-14T06:57:45;2.70;;;2.50;;
5869;SDS011;2961;47.702;9.410;2023-12-14T07:00:13;3.07;;;2.83;;
5869;SDS011;2961;47.702;9.410;2023-12-14T07:02:40;8.13;;;2.93;;
5869;SDS011;2961;47.702;9.410;2023-12-14T07:05:07;3.60;;;3.30;;
5869;SDS011;2961;47.702;9.410;2023-12-14T07:07:34;3.17;;;2.90;;
5869;SDS011;2961;47.702;9.410;2023-12-14T07:10:01;3.77;;;3.37;;
5869;SDS011;2961;47.702;9.410;2023-12-14T07:12:28;3.60;;;3.10;;
5869;SDS011;2961;47.702;9.410;2023-12-14T07:14:56;5.10;;;3.23;;
5869;SDS011;2961;47.702;9.410;2023-12-14T07:17:23;3.37;;;3.07;;
5869;SDS011;2961;47.702;9.410;2023-12-14T07:19:50;6.67;;;2.90;;
5869;SDS011;2961;47.702;9.410;2023-12-14T07:22:18;3.43;;;3.07;;
5869;SDS011;2961;47.702;9.410;2023-12-14T07:24:44;3.60;;;3.10;;
5869;SDS011;2961;47.702;9.410;2023-12-14T07:27:12;3.80;;;3.50;;
5869;SDS011;2961;47.702;9.410;2023-12-14T07:29:39;3.70;;;3.43;;
5869;SDS011;2961;47.702;9.410;2023-12-14T07:32:07;4.17;;;3.60;;
5869;SDS011;2961;47.702;9.410;2023-12-14T07:34:33;3.13;;;2.93;;
5869;SDS011;2961;47.702;9.410;2023-12-14T07:37:00;4.43;;;4.03;;
5869;SDS011;2961;47.702;9.410;2023-12-14T07:39:27;4.50;;;4.03;;
5869;SDS011;2961;47.702;9.410;2023-12-14T07:41:54;9.90;;;4.00;;
5869;SDS011;2961;47.702;9.410;2023-12-14T07:44:21;4.60;;;4.20;;
5869;SDS011;2961;47.702;9.410;2023-12-14T07:46:50;4.73;;;4.17;;
5869;SDS011;2961;47.702;9.410;2023-12-14T07:49:18;4.73;;;4.33;;
5869;SDS011;2961;47.702;9.410;2023-12-14T07:51:47;5.50;;;4.97;;
5869;SDS011;2961;47.702;9.410;2023-12-14T07:54:14;4.13;;;3.40;;
5869;SDS011;2961;47.702;9.410;2023-12-14T07:56:41;5.33;;;4.13;;
5869;SDS011;2961;47.702;9.410;2023-12-14T07:59:07;4.10;;;3.70;;
5869;SDS011;2961;47.702;9.410;2023-12-14T08:01:35;5.30;;;3.73;;
5869;SDS011;2961;47.702;9.410;2023-12-14T08:04:02;5.30;;;4.37;;
5869;SDS011;2961;47.702;9.410;2023-12-14T08:06:30;5.33;;;4.37;;
5869;SDS011;2961;47.702;9.410;2023-12-14T08:08:57;6.53;;;5.47;;
5869;SDS011;2961;47.702;9.410;2023-12-14T08:11:24;4.30;;;3.90;;
5869;SDS011;2961;47.702;9.410;2023-12-14T08:13:51;9.23;;;5.30;;
5869;SDS011;2961;47.702;9.410;2023-12-14T08:16:18;7.43;;;6.47;;
5869;SDS011;2961;47.702;9.410;2023-12-14T08:18:45;5.40;;;4.90;;
5869;SDS011;2961;47.702;9.410;2023-12-14T08:21:13;10.60;;;6.03;;
5869;SDS011;2961;47.702;9.410;2023-12-14T08:23:41;6.27;;;5.13;;
5869;SDS011;2961;47.702;9.410;2023-12-14T08:26:08;4.17;;;3.67;;
5869;SDS011;2961;47.702;9.410;2023-12-14T08:28:37;4.83;;;4.40;;
5869;SDS011;2961;47.702;9.410;2023-12-14T08:31:04;3.93;;;3.57;;
5869;SDS011;2961;47.702;9.410;2023-12-14T08:33:31;6.50;;;5.40;;
5869;SDS011;2961;47.702;9.410;2023-12-14T08:35:58;5.00;;;4.00;;
5869;SDS011;2961;47.702;9.410;2023-12-14T08:38:25;7.50;;;3.93;;
5869;SDS011;2961;47.702;9.410;2023-12-14T08:40:53;4.40;;;4.07;;
5869;SDS011;2961;47.702;9.410;2023-12-14T08:43:20;6.27;;;4.43;;
5869;SDS011;2961;47.702;9.410;2023-12-14T08:45:46;4.47;;;4.07;;
5869;SDS011;2961;47.702;9.410;2023-12-14T08:48:13;4.70;;;3.80;;
5869;SDS011;2961;47.702;9.410;2023-12-14T08:50:40;5.70;;;3.53;;
5869;SDS011;2961;47.702;9.410;2023-12-14T08:53:07;4.00;;;3.70;;
5869;SDS011;2961;47.702;9.410;2023-12-14T08:55:34;4.80;;;4.00;;
5869;SDS011;2961;47.702;9.410;2023-12-14T08:58:02;7.10;;;5.33;;
5869;SDS011;2961;47.702;9.410;2023-12-14T09:00:29;18.60;;;11.20;;
5869;SDS011;2961;47.702;9.410;2023-12-14T09:02:55;11.70;;;7.97;;
5869;SDS011;2961;47.702;9.410;2023-12-14T09:05:23;11.73;;;8.67;;
5869;SDS011;2961;47.702;9.410;2023-12-14T09:07:51;8.23;;;5.70;;
5869;SDS011;2961;47.702;9.410;2023-12-14T09:10:21;6.43;;;5.80;;
5869;SDS011;2961;47.702;9.410;2023-12-14T09:12:48;13.47;;;7.60;;
5869;SDS011;2961;47.702;9.410;2023-12-14T09:15:16;7.70;;;6.70;;
5869;SDS011;2961;47.702;9.410;2023-12-14T09:17:43;10.70;;;7.23;;
5869;SDS011;2961;47.702;9.410;2023-12-14T09:20:10;10.37;;;7.47;;
5869;SDS011;2961;47.702;9.410;2023-12-14T09:22:37;6.90;;;6.20;;
5869;SDS011;2961;47.702;9.410;2023-12-14T09:25:04;10.13;;;7.53;;
5869;SDS011;2961;47.702;9.410;2023-12-14T09:27:34;7.80;;;6.90;;
5869;SDS011;2961;47.702;9.410;2023-12-14T09:30:01;10.70;;;5.80;;
5869;SDS011;2961;47.702;9.410;2023-12-14T09:32:29;8.67;;;7.60;;
5869;SDS011;2961;47.702;9.410;2023-12-14T09:34:56;7.60;;;6.60;;
5869;SDS011;2961;47.702;9.410;2023-12-14T09:37:23;21.30;;;14.23;;
5869;SDS011;2961;47.702;9.410;2023-12-14T09:39:50;14.30;;;10.93;;
5869;SDS011;2961;47.702;9.410;2023-12-14T09:42:17;10.37;;;9.27;;
5869;SDS011;2961;47.702;9.410;2023-12-14T09:44:45;10.00;;;8.83;;
5869;SDS011;2961;47.702;9.410;2023-12-14T09:47:13;8.33;;;7.27;;
5869;SDS011;2961;47.702;9.410;2023-12-14T09:49:42;9.30;;;5.80;;
5869;SDS011;2961;47.702;9.410;2023-12-14T09:52:09;11.97;;;6.40;;
5869;SDS011;2961;47.702;9.410;2023-12-14T09:54:36;7.57;;;6.77;;
5869;SDS011;2961;47.702;9.410;2023-12-14T09:57:03;8.50;;;7.10;;
5869;SDS011;2961;47.702;9.410;2023-12-14T09:59:30;9.30;;;5.43;;
5869;SDS011;2961;47.702;9.410;2023-12-14T10:02:08;9.83;;;5.20;;
5869;SDS011;2961;47.702;9.410;2023-12-14T10:04:36;7.23;;;5.63;;
5869;SDS011;2961;47.702;9.410;2023-12-14T10:07:05;8.93;;;6.90;;
5869;SDS011;2961;47.702;9.410;2023-12-14T10:09:33;6.70;;;5.13;;
5869;SDS011;2961;47.702;9.410;2023-12-14T10:12:02;10.17;;;6.47;;
5869;SDS011;2961;47.702;9.410;2023-12-14T10:14:30;10.77;;;6.20;;
5869;SDS011;2961;47.702;9.410;2023-12-14T10:16:58;8.50;;;5.50;;
5869;SDS011;2961;47.702;9.410;2023-12-14T10:19:25;11.07;;;6.03;;
5869;SDS011;2961;47.702;9.410;2023-12-14T10:21:52;9.53;;;7.83;;
5869;SDS011;2961;47.702;9.410;2023-12-14T10:24:20;14.53;;;7.10;;
5869;SDS011;2961;47.702;9.410;2023-12-14T10:26:48;6.73;;;5.90;;
5869;SDS011;2961;47.702;9.410;2023-12-14T10:29:17;8.60;;;6.23;;
5869;SDS011;2961;47.702;9.410;2023-12-14T10:31:43;7.10;;;6.13;;
5869;SDS011;2961;47.702;9.410;2023-12-14T10:34:10;8.43;;;6.30;;
5869;SDS011;2961;47.702;9.410;2023-12-14T10:36:37;6.80;;;5.60;;
5869;SDS011;2961;47.702;9.410;2023-12-14T10:39:04;7.80;;;6.13;;
5869;SDS011;2961;47.702;9.410;2023-12-14T10:41:34;9.10;;;7.23;;
5869;SDS011;2961;47.702;9.410;2023-12-14T10:44:03;6.77;;;6.07;;
5869;SDS011;2961;47.702;9.410;2023-12-14T10:46:31;6.97;;;5.83;;
5869;SDS011;2961;47.702;9.410;2023-12-14T10:48:59;7.20;;;6.00;;
5869;SDS011;2961;47.702;9.410;2023-12-14T10:51:27;7.80;;;6.80;;
5869;SDS011;2961;47.702;9.410;2023-12-14T10:53:55;8.90;;;6.40;;
5869;SDS011;2961;47.702;9.410;2023-12-14T10:56:22;7.57;;;6.80;;
5869;SDS011;2961;47.702;9.410;2023-12-14T10:58:53;9.30;;;8.00;;
5869;SDS011;2961;47.702;9.410;2023-12-14T11:01:23;7.00;;;6.30;;
5869;SDS011;2961;47.702;9.410;2023-12-14T11:03:52;6.40;;;5.67;;
5869;SDS011;2961;47.702;9.410;2023-12-14T11:06:26;8.40;;;6.47;;
5869;SDS011;2961;47.702;9.410;2023-12-14T11:08:56;7.73;;;5.93;;
5869;SDS011;2961;47.702;9.410;2023-12-14T11:11:27;8.67;;;5.97;;
5869;SDS011;2961;47.702;9.410;2023-12-14T11:13:55;6.50;;;5.17;;
5869;SDS011;2961;47.702;9.410;2023-12-14T11:16:23;8.93;;;5.80;;
5869;SDS011;2961;47.702;9.410;2023-12-14T11:19:05;5.37;;;4.90;;
5869;SDS011;2961;47.702;9.410;2023-12-14T11:21:56;5.87;;;5.27;;
5869;SDS011;2961;47.702;9.410;2023-12-14T11:24:50;7.50;;;4.97;;
5869;SDS011;2961;47.702;9.410;2023-12-14T11:27:19;4.33;;;3.93;;
5869;SDS011;2961;47.702;9.410;2023-12-14T11:29:52;4.73;;;4.30;;
5869;SDS011;2961;47.702;9.410;2023-12-14T11:32:19;4.70;;;4.20;;
5869;SDS011;2961;47.702;9.410;2023-12-14T11:34:46;5.73;;;5.23;;
5869;SDS011;2961;47.702;9.410;2023-12-14T11:37:13;4.73;;;4.10;;
5869;SDS011;2961;47.702;9.410;2023-12-14T11:39:40;6.70;;;5.10;;
5869;SDS011;2961;47.702;9.410;2023-12-14T11:42:09;4.30;;;3.90;;
5869;SDS011;2961;47.702;9.410;2023-12-14T11:44:36;3.90;;;3.60;;
5869;SDS011;2961;47.702;9.410;2023-12-14T11:47:04;4.20;;;3.90;;
5869;SDS011;2961;47.702;9.410;2023-12-14T11:49:31;4.13;;;3.80;;
5869;SDS011;2961;47.702;9.410;2023-12-14T11:52:01;5.07;;;4.60;;
5869;SDS011;2961;47.702;9.410;2023-12-14T11:54:29;3.90;;;3.50;;
5869;SDS011;2961;47.702;9.410;2023-12-14T11:56:56;3.40;;;3.10;;
5869;SDS011;2961;47.702;9.410;2023-12-14T11:59:23;3.30;;;3.10;;
5869;SDS011;2961;47.702;9.410;2023-12-14T12:01:53;7.53;;;3.93;;
5869;SDS011;2961;47.702;9.410;2023-12-14T12:04:22;3.63;;;3.43;;
5869;SDS011;2961;47.702;9.410;2023-12-14T12:06:49;2.10;;;2.00;;
5869;SDS011;2961;47.702;9.410;2023-12-14T12:09:31;2.90;;;2.70;;
5869;SDS011;2961;47.702;9.410;2023-12-14T12:11:59;3.97;;;3.57;;
5869;SDS011;2961;47.702;9.410;2023-12-14T12:14:27;3.33;;;2.80;;
5869;SDS011;2961;47.702;9.410;2023-12-14T12:16:53;7.23;;;4.40;;
5869;SDS011;2961;47.702;9.410;2023-12-14T12:19:20;38.50;;;17.80;;
5869;SDS011;2961;47.702;9.410;2023-12-14T12:21:48;121.53;;;49.63;;
5869;SDS011;2961;47.702;9.410;2023-12-14T12:24:15;74.00;;;33.67;;
5869;SDS011;2961;47.702;9.410;2023-12-14T12:26:42;38.40;;;19.50;;
5869;SDS011;2961;47.702;9.410;2023-12-14T12:29:08;27.40;;;12.40;;
5869;SDS011;2961;47.702;9.410;2023-12-14T12:31:35;11.00;;;6.00;;
5869;SDS011;2961;47.702;9.410;2023-12-14T12:34:02;17.07;;;9.47;;
5869;SDS011;2961;47.702;9.410;2023-12-14T12:36:29;35.00;;;15.50;;
5869;SDS011;2961;47.702;9.410;2023-12-14T12:38:57;8.13;;;5.10;;
5869;SDS011;2961;47.702;9.410;2023-12-14T12:41:24;19.70;;;9.97;;
5869;SDS011;2961;47.702;9.410;2023-12-14T12:43:51;12.60;;;7.10;;
5869;SDS011;2961;47.702;9.410;2023-12-14T12:46:18;10.43;;;6.50;;
5869;SDS011;2961;47.702;9.410;2023-12-14T12:48:45;8.17;;;5.33;;
5869;SDS011;2961;47.702;9.410;2023-12-14T12:51:12;4.70;;;3.90;;
5869;SDS011;2961;47.702;9.410;2023-12-14T12:53:39;4.23;;;3.13;;
5869;SDS011;2961;47.702;9.410;2023-12-14T12:56:07;5.83;;;5.03;;
5869;SDS011;2961;47.702;9.410;2023-12-14T12:58:34;3.80;;;3.27;;
5869;SDS011;2961;47.702;9.410;2023-12-14T13:01:01;3.90;;;3.60;;
5869;SDS011;2961;47.702;9.410;2023-12-14T13:03:27;3.37;;;3.03;;
5869;SDS011;2961;47.702;9.410;2023-12-14T13:05:54;5.57;;;3.07;;
5869;SDS011;2961;47.702;9.410;2023-12-14T13:08:21;8.10;;;5.13;;
5869;SDS011;2961;47.702;9.410;2023-12-14T13:10:48;13.47;;;5.97;;
5869;SDS011;2961;47.702;9.410;2023-12-14T13:13:18;5.20;;;3.70;;
5869;SDS011;2961;47.702;9.410;2023-12-14T13:15:44;6.40;;;4.33;;
5869;SDS011;2961;47.702;9.410;2023-12-14T13:18:11;3.40;;;3.10;;
5869;SDS011;2961;47.702;9.410;2023-12-14T13:20:40;9.07;;;5.33;;
5869;SDS011;2961;47.702;9.410;2023-12-14T13:23:07;8.00;;;5.70;;
5869;SDS011;2961;47.702;9.410;2023-12-14T13:25:34;12.67;;;6.10;;
5869;SDS011;2961;47.702;9.410;2023-12-14T13:28:01;3.17;;;2.87;;
5869;SDS011;2961;47.702;9.410;2023-12-14T13:30:30;2.10;;;1.40;;
5869;SDS011;2961;47.702;9.410;2023-12-14T13:32:57;4.40;;;2.97;;
5869;SDS011;2961;47.702;9.410;2023-12-14T13:35:23;2.80;;;2.20;;
5869;SDS011;2961;47.702;9.410;2023-12-14T13:37:50;7.30;;;5.17;;
5869;SDS011;2961;47.702;9.410;2023-12-14T13:40:17;2.93;;;2.57;;
5869;SDS011;2961;47.702;9.410;2023-12-14T13:42:44;1.37;;;1.27;;
5869;SDS011;2961;47.702;9.410;2023-12-14T13:45:10;2.13;;;2.03;;
5869;SDS011;2961;47.702;9.410;2023-12-14T13:47:38;4.30;;;3.90;;
5869;SDS011;2961;47.702;9.410;2023-12-14T13:50:06;5.67;;;4.13;;
5869;SDS011;2961;47.702;9.410;2023-12-14T13:52:33;3.53;;;3.20;;
5869;SDS011;2961;47.702;9.410;2023-12-14T13:55:00;2.13;;;2.00;;
5869;SDS011;2961;47.702;9.410;2023-12-14T13:57:27;2.10;;;2.00;;
5869;SDS011;2961;47.702;9.410;2023-12-14T13:59:54;1.90;;;1.67;;
5869;SDS011;2961;47.702;9.410;2023-12-14T14:02:21;3.23;;;2.30;;
5869;SDS011;2961;47.702;9.410;2023-12-14T14:04:49;1.93;;;1.83;;
5869;SDS011;2961;47.702;9.410;2023-12-14T14:07:17;3.50;;;2.20;;
5869;SDS011;2961;47.702;9.410;2023-12-14T14:09:44;5.80;;;2.77;;
5869;SDS011;2961;47.702;9.410;2023-12-14T14:12:10;2.50;;;2.30;;
5869;SDS011;2961;47.702;9.410;2023-12-14T14:14:37;6.53;;;2.40;;
5869;SDS011;2961;47.702;9.410;2023-12-14T14:17:04;3.67;;;2.67;;
5869;SDS011;2961;47.702;9.410;2023-12-14T14:19:32;3.53;;;3.23;;
5869;SDS011;2961;47.702;9.410;2023-12-14T14:22:00;3.30;;;3.00;;
5869;SDS011;2961;47.702;9.410;2023-12-14T14:24:27;2.90;;;2.70;;
5869;SDS011;2961;47.702;9.410;2023-12-14T14:26:54;6.03;;;3.63;;
5869;SDS011;2961;47.702;9.410;2023-12-14T14:29:21;10.60;;;3.23;;
5869;SDS011;2961;47.702;9.410;2023-12-14T14:31:47;5.37;;;3.37;;
5869;SDS011;2961;47.702;9.410;2023-12-14T14:34:14;3.67;;;3.37;;
5869;SDS011;2961;47.702;9.410;2023-12-14T14:36:41;3.47;;;3.00;;
5869;SDS011;2961;47.702;9.410;2023-12-14T14:39:11;5.00;;;3.73;;
5869;SDS011;2961;47.702;9.410;2023-12-14T14:41:37;3.93;;;3.63;;
5869;SDS011;2961;47.702;9.410;2023-12-14T14:44:04;6.20;;;3.80;;
5869;SDS011;2961;47.702;9.410;2023-12-14T14:46:31;5.77;;;3.20;;
5869;SDS011;2961;47.702;9.410;2023-12-14T14:48:58;4.33;;;3.20;;
5869;SDS011;2961;47.702;9.410;2023-12-14T14:51:26;2.40;;;2.30;;
5869;SDS011;2961;47.702;9.410;2023-12-14T14:53:54;2.73;;;2.53;;
5869;SDS011;2961;47.702;9.410;2023-12-14T14:56:23;6.73;;;3.13;;
5869;SDS011;2961;47.702;9.410;2023-12-14T14:58:49;3.13;;;2.00;;
5869;SDS011;2961;47.702;9.410;2023-12-14T15:01:16;2.53;;;2.33;;
5869;SDS011;2961;47.702;9.410;2023-12-14T15:03:44;2.20;;;2.10;;
5869;SDS011;2961;47.702;9.410;2023-12-14T15:06:10;2.50;;;2.40;;
5869;SDS011;2961;47.702;9.410;2023-12-14T15:08:37;2.70;;;2.50;;
5869;SDS011;2961;47.702;9.410;2023-12-14T15:11:16;2.40;;;2.23;;
5869;SDS011;2961;47.702;9.410;2023-12-14T15:13:46;2.00;;;1.90;;
5869;SDS011;2961;47.702;9.410;2023-12-14T15:16:13;3.67;;;2.67;;